Time;durP1;ratioP1;P1;durP2;ratioP2;P2;SDS_P1;SDS_P2;PMS_P1;PMS_P2;Temp;Humidity;BMP_temperature;BMP_pressure;BME280_temperature;BME280_humidity;BME280_pressure;Samples;Min_cycle;Max_cycle;Signal;HPM_P1;HPM_P2
2021/05/21 00:02:23;;;;;;;2.67;2.25;;;;;;;;;;1674618;82;20992;-56
2021/05/21 00:04:49;;;;;;;4.03;2.70;;;;;;;;;;1676898;82;21150;-58
2021/05/21 00:07:15;;;;;;;3.33;2.30;;;;;;;;;;1673131;82;20960;-57
2021/05/21 00:09:42;;;;;;;4.37;2.72;;;;;;;;;;1668105;82;21591;-59
2021/05/21 00:12:08;;;;;;;7.22;3.10;;;;;;;;;;1684937;83;21024;-56
2021/05/21 00:14:36;;;;;;;3.25;2.60;;;;;;;;;;1696145;82;21011;-56
2021/05/21 00:17:02;;;;;;;2.80;2.35;;;;;;;;;;1695792;82;21829;-56
2021/05/21 00:19:28;;;;;;;5.03;3.33;;;;;;;;;;1695840;83;20940;-56
2021/05/21 00:21:56;;;;;;;6.28;2.58;;;;;;;;;;1696284;82;20984;-55
2021/05/21 00:24:22;;;;;;;4.67;2.87;;;;;;;;;;1704092;82;21035;-55
2021/05/21 00:26:50;;;;;;;4.10;2.60;;;;;;;;;;1709132;82;21454;-56
2021/05/21 00:29:17;;;;;;;4.55;2.90;;;;;;;;;;1709067;82;21798;-57
2021/05/21 00:31:44;;;;;;;4.33;2.87;;;;;;;;;;1689517;82;21081;-56
2021/05/21 00:34:10;;;;;;;3.65;2.70;;;;;;;;;;1709186;82;20963;-56
2021/05/21 00:36:36;;;;;;;3.58;2.58;;;;;;;;;;1709288;82;21035;-55
2021/05/21 00:39:04;;;;;;;4.15;2.62;;;;;;;;;;1708985;82;20970;-57
2021/05/21 00:41:30;;;;;;;5.83;2.75;;;;;;;;;;1707681;82;21054;-55
2021/05/21 00:43:57;;;;;;;3.70;2.30;;;;;;;;;;1692197;82;21095;-55
2021/05/21 00:46:24;;;;;;;2.40;2.20;;;;;;;;;;1709209;82;21595;-55
2021/05/21 00:48:50;;;;;;;3.55;2.85;;;;;;;;;;1680939;82;21056;-55
2021/05/21 00:51:16;;;;;;;4.22;2.40;;;;;;;;;;1698431;82;21007;-56
2021/05/21 00:53:42;;;;;;;4.30;2.62;;;;;;;;;;1709576;82;22561;-55
2021/05/21 00:56:09;;;;;;;2.50;2.17;;;;;;;;;;1709011;82;21047;-54
2021/05/21 00:58:37;;;;;;;3.85;2.33;;;;;;;;;;1703293;82;20939;-56
2021/05/21 01:01:04;;;;;;;4.50;2.45;;;;;;;;;;1680926;82;21588;-56
2021/05/21 01:03:30;;;;;;;2.80;2.50;;;;;;;;;;1680947;82;21106;-56
2021/05/21 01:05:56;;;;;;;3.67;2.33;;;;;;;;;;1682479;82;21042;-56
2021/05/21 01:08:22;;;;;;;2.55;2.10;;;;;;;;;;1688475;82;21023;-57
2021/05/21 01:10:50;;;;;;;4.35;2.27;;;;;;;;;;1682816;82;21003;-55
2021/05/21 01:13:16;;;;;;;3.20;2.37;;;;;;;;;;1709668;82;20987;-56
2021/05/21 01:15:43;;;;;;;2.98;2.27;;;;;;;;;;1707591;82;21053;-56
2021/05/21 01:18:10;;;;;;;3.60;2.58;;;;;;;;;;1709289;82;21824;-55
2021/05/21 01:20:36;;;;;;;3.42;2.72;;;;;;;;;;1709637;82;21027;-55
2021/05/21 01:23:03;;;;;;;2.45;2.25;;;;;;;;;;1709652;82;20983;-55
2021/05/21 01:25:29;;;;;;;4.10;3.40;;;;;;;;;;1697309;82;20960;-55
2021/05/21 01:27:55;;;;;;;4.60;3.00;;;;;;;;;;1677011;82;21100;-55
2021/05/21 01:30:22;;;;;;;6.45;3.25;;;;;;;;;;1696449;83;21150;-55
2021/05/21 01:32:48;;;;;;;6.58;3.30;;;;;;;;;;1696207;82;20945;-56
2021/05/21 01:35:15;;;;;;;4.10;2.90;;;;;;;;;;1696547;82;21569;-55
2021/05/21 01:37:45;;;;;;;4.55;2.60;;;;;;;;;;1695559;82;21546;-54
2021/05/21 01:40:12;;;;;;;5.58;2.87;;;;;;;;;;1675901;82;20928;-55
2021/05/21 01:42:39;;;;;;;5.17;3.37;;;;;;;;;;1668161;82;21035;-55
2021/05/21 01:45:06;;;;;;;5.47;3.40;;;;;;;;;;1668209;82;21099;-55
2021/05/21 01:47:32;;;;;;;4.95;3.25;;;;;;;;;;1676461;82;21071;-56
2021/05/21 01:49:58;;;;;;;4.58;3.05;;;;;;;;;;1668221;82;20984;-57
2021/05/21 01:52:24;;;;;;;3.60;3.27;;;;;;;;;;1682448;82;21004;-57
2021/05/21 01:54:50;;;;;;;4.35;3.00;;;;;;;;;;1668187;82;21591;-55
2021/05/21 01:57:17;;;;;;;4.25;3.25;;;;;;;;;;1678410;82;20944;-56
2021/05/21 01:59:43;;;;;;;4.50;3.30;;;;;;;;;;1668226;82;21045;-55
2021/05/21 02:02:09;;;;;;;2.58;2.37;;;;;;;;;;1668116;82;21024;-55
2021/05/21 02:04:40;;;;;;;3.75;3.17;;;;;;;;;;1668225;82;20941;-55
2021/05/21 02:07:07;;;;;;;3.00;2.70;;;;;;;;;;1679989;82;21729;-55
2021/05/21 02:09:43;;;;;;;5.33;2.60;;;;;;;;;;1671118;82;21068;-55
2021/05/21 02:12:11;;;;;;;3.05;2.75;;;;;;;;;;1683880;82;25271;-55
2021/05/21 02:14:38;;;;;;;3.98;2.80;;;;;;;;;;1682044;82;21592;-54
2021/05/21 02:17:05;;;;;;;4.00;2.90;;;;;;;;;;1682861;82;21556;-55
2021/05/21 02:19:33;;;;;;;5.25;2.58;;;;;;;;;;1671865;82;21915;-56
2021/05/21 02:21:59;;;;;;;3.70;2.60;;;;;;;;;;1678205;84;20952;-57
2021/05/21 02:24:25;;;;;;;2.55;2.35;;;;;;;;;;1668036;82;21027;-56
2021/05/21 02:26:51;;;;;;;2.83;2.62;;;;;;;;;;1679729;82;21813;-56
2021/05/21 02:29:17;;;;;;;5.08;2.72;;;;;;;;;;1673369;82;20932;-56
2021/05/21 02:31:44;;;;;;;5.35;2.65;;;;;;;;;;1684033;82;21157;-59
2021/05/21 02:34:10;;;;;;;8.50;2.98;;;;;;;;;;1683927;82;20937;-56
2021/05/21 02:36:36;;;;;;;3.42;2.80;;;;;;;;;;1693659;82;21019;-56
2021/05/21 02:39:03;;;;;;;4.58;2.37;;;;;;;;;;1678976;82;21051;-56
2021/05/21 02:41:29;;;;;;;3.02;2.62;;;;;;;;;;1670266;82;21470;-56
2021/05/21 02:43:55;;;;;;;7.75;3.62;;;;;;;;;;1681468;82;22039;-55
2021/05/21 02:46:21;;;;;;;6.47;4.20;;;;;;;;;;1686573;82;20925;-56
2021/05/21 02:48:48;;;;;;;5.10;3.10;;;;;;;;;;1668410;82;20976;-55
2021/05/21 02:51:15;;;;;;;4.17;2.85;;;;;;;;;;1668190;82;20964;-56
2021/05/21 02:53:42;;;;;;;5.03;2.70;;;;;;;;;;1668257;82;20988;-55
2021/05/21 02:56:08;;;;;;;6.45;3.33;;;;;;;;;;1673960;82;21080;-56
2021/05/21 02:58:34;;;;;;;12.28;4.03;;;;;;;;;;1668145;82;21047;-55
2021/05/21 03:01:00;;;;;;;9.93;3.95;;;;;;;;;;1668114;82;20987;-55
2021/05/21 03:03:27;;;;;;;4.78;3.62;;;;;;;;;;1668016;82;21040;-60
2021/05/21 03:05:55;;;;;;;7.67;3.37;;;;;;;;;;1668122;82;21035;-55
2021/05/21 03:08:22;;;;;;;8.70;4.65;;;;;;;;;;1673722;82;21842;-55
2021/05/21 03:10:49;;;;;;;8.33;4.35;;;;;;;;;;1677144;82;21079;-57
2021/05/21 03:13:15;;;;;;;6.92;4.92;;;;;;;;;;1696309;82;20960;-55
2021/05/21 03:15:43;;;;;;;8.00;5.72;;;;;;;;;;1696129;82;20948;-55
2021/05/21 03:18:18;;;;;;;9.20;5.70;;;;;;;;;;1698537;82;21003;-57
2021/05/21 03:20:43;;;;;;;6.42;5.55;;;;;;;;;;1696227;82;21821;-56
2021/05/21 03:23:09;;;;;;;6.20;5.15;;;;;;;;;;1696253;82;21528;-56
2021/05/21 03:25:36;;;;;;;6.00;4.45;;;;;;;;;;1703706;82;20962;-55
2021/05/21 03:28:03;;;;;;;5.72;4.87;;;;;;;;;;1708782;82;21118;-56
2021/05/21 03:30:29;;;;;;;5.20;4.55;;;;;;;;;;1709752;82;21031;-57
2021/05/21 03:32:55;;;;;;;7.40;4.22;;;;;;;;;;1709479;82;21100;-56
2021/05/21 03:35:23;;;;;;;6.75;4.42;;;;;;;;;;1704695;84;20979;-56
2021/05/21 03:37:49;;;;;;;7.17;3.75;;;;;;;;;;1706310;82;21047;-57
2021/05/21 03:40:16;;;;;;;3.58;2.67;;;;;;;;;;1702859;84;21102;-55
2021/05/21 03:42:42;;;;;;;2.50;2.30;;;;;;;;;;1704742;84;20995;-55
2021/05/21 03:45:09;;;;;;;4.95;2.20;;;;;;;;;;1706522;84;21066;-55
2021/05/21 03:47:35;;;;;;;4.22;2.50;;;;;;;;;;1705256;84;21015;-55
2021/05/21 03:50:02;;;;;;;2.30;2.10;;;;;;;;;;1706541;84;20906;-55
2021/05/21 03:52:28;;;;;;;3.22;2.47;;;;;;;;;;1704946;82;21039;-55
2021/05/21 03:54:55;;;;;;;5.22;2.20;;;;;;;;;;1706176;82;21631;-56
2021/05/21 03:57:21;;;;;;;3.47;1.90;;;;;;;;;;1704053;82;21537;-55
2021/05/21 03:59:48;;;;;;;9.53;7.05;;;;;;;;;;1706731;82;20988;-57
2021/05/21 04:02:14;;;;;;;7.40;4.45;;;;;;;;;;1706221;82;20983;-55
2021/05/21 04:04:40;;;;;;;5.05;2.90;;;;;;;;;;1699390;84;21057;-55
2021/05/21 04:07:08;;;;;;;2.35;2.15;;;;;;;;;;1700756;84;21600;-59
2021/05/21 04:09:36;;;;;;;3.08;2.35;;;;;;;;;;1694984;82;21684;-55
2021/05/21 04:12:03;;;;;;;3.15;2.22;;;;;;;;;;1709234;82;20908;-57
2021/05/21 04:14:29;;;;;;;7.20;3.77;;;;;;;;;;1709525;82;21075;-56
2021/05/21 04:16:55;;;;;;;5.35;3.98;;;;;;;;;;1709428;82;21019;-55
2021/05/21 04:19:21;;;;;;;7.75;4.58;;;;;;;;;;1708861;82;21028;-60
2021/05/21 04:21:49;;;;;;;7.37;5.37;;;;;;;;;;1708811;82;20972;-58
2021/05/21 04:24:16;;;;;;;8.65;5.87;;;;;;;;;;1708587;82;21003;-59
2021/05/21 04:26:42;;;;;;;8.25;6.15;;;;;;;;;;1709102;82;20975;-59
2021/05/21 04:29:08;;;;;;;10.85;6.75;;;;;;;;;;1709345;82;21027;-61
2021/05/21 04:31:35;;;;;;;11.05;7.10;;;;;;;;;;1709505;82;20976;-61
2021/05/21 04:34:01;;;;;;;16.27;8.18;;;;;;;;;;1698226;82;21850;-51
2021/05/21 04:36:27;;;;;;;15.13;8.43;;;;;;;;;;1699412;82;20916;-56
2021/05/21 04:38:54;;;;;;;13.65;8.03;;;;;;;;;;1709490;82;21026;-58
2021/05/21 04:41:20;;;;;;;13.75;6.72;;;;;;;;;;1709253;82;21509;-58
2021/05/21 04:43:47;;;;;;;9.08;7.03;;;;;;;;;;1708541;82;21019;-54
2021/05/21 04:46:13;;;;;;;13.40;7.65;;;;;;;;;;1705794;84;21098;-52
2021/05/21 04:48:41;;;;;;;12.93;8.20;;;;;;;;;;1695227;83;21550;-54
2021/05/21 04:51:07;;;;;;;15.68;8.73;;;;;;;;;;1706963;84;21556;-55
2021/05/21 04:53:34;;;;;;;8.98;6.05;;;;;;;;;;1705162;84;21039;-55
2021/05/21 04:56:01;;;;;;;13.55;5.80;;;;;;;;;;1703278;82;21439;-54
2021/05/21 04:58:27;;;;;;;9.30;6.53;;;;;;;;;;1704934;84;21560;-55
2021/05/21 05:00:53;;;;;;;8.45;5.37;;;;;;;;;;1693323;82;20999;-56
2021/05/21 05:03:21;;;;;;;8.33;5.62;;;;;;;;;;1708081;82;20956;-59
2021/05/21 05:05:47;;;;;;;7.45;5.47;;;;;;;;;;1685744;82;20948;-57
2021/05/21 05:08:15;;;;;;;9.73;5.30;;;;;;;;;;1687057;82;21624;-58
2021/05/21 05:10:43;;;;;;;9.25;5.87;;;;;;;;;;1683693;82;21094;-58
2021/05/21 05:13:09;;;;;;;9.90;5.80;;;;;;;;;;1709647;82;21533;-60
2021/05/21 05:15:36;;;;;;;7.78;6.12;;;;;;;;;;1703666;84;21011;-58
2021/05/21 05:18:02;;;;;;;8.93;5.17;;;;;;;;;;1698028;82;21070;-60
2021/05/21 05:20:30;;;;;;;7.62;5.75;;;;;;;;;;1695254;84;21023;-61
2021/05/21 05:22:56;;;;;;;11.93;6.87;;;;;;;;;;1697260;82;21726;-58
2021/05/21 05:25:23;;;;;;;12.13;6.30;;;;;;;;;;1690415;84;21130;-57
2021/05/21 05:27:53;;;;;;;11.10;7.12;;;;;;;;;;1682260;82;21035;-59
2021/05/21 05:30:21;;;;;;;12.05;7.72;;;;;;;;;;1706024;82;21043;-57
2021/05/21 05:32:48;;;;;;;13.78;7.30;;;;;;;;;;1689291;82;21027;-57
2021/05/21 05:35:15;;;;;;;15.28;7.08;;;;;;;;;;1680907;82;21102;-58
2021/05/21 05:37:41;;;;;;;13.00;7.40;;;;;;;;;;1680925;82;21047;-59
2021/05/21 05:40:07;;;;;;;10.58;6.55;;;;;;;;;;1680932;82;21007;-58
2021/05/21 05:42:34;;;;;;;8.80;5.55;;;;;;;;;;1680934;82;21018;-58
2021/05/21 05:45:01;;;;;;;7.25;5.72;;;;;;;;;;1681215;82;20935;-58
2021/05/21 05:47:27;;;;;;;9.30;5.50;;;;;;;;;;1680927;82;21821;-61
2021/05/21 05:49:53;;;;;;;7.67;4.80;;;;;;;;;;1681017;82;21011;-59
2021/05/21 05:52:19;;;;;;;13.53;6.47;;;;;;;;;;1681048;82;20920;-58
2021/05/21 05:54:45;;;;;;;8.00;4.58;;;;;;;;;;1681158;82;21018;-59
2021/05/21 05:57:12;;;;;;;8.10;4.42;;;;;;;;;;1688127;82;21525;-58
2021/05/21 05:59:39;;;;;;;6.20;3.92;;;;;;;;;;1694155;82;21629;-59
2021/05/21 06:02:05;;;;;;;9.53;4.33;;;;;;;;;;1681204;82;20991;-58
2021/05/21 06:04:31;;;;;;;7.87;3.75;;;;;;;;;;1688395;82;20896;-59
2021/05/21 06:06:58;;;;;;;8.10;4.22;;;;;;;;;;1682962;82;20983;-59
2021/05/21 06:09:26;;;;;;;6.58;3.55;;;;;;;;;;1686082;82;20991;-58
2021/05/21 06:11:52;;;;;;;4.97;2.70;;;;;;;;;;1694849;82;21158;-61
2021/05/21 06:14:18;;;;;;;7.22;3.05;;;;;;;;;;1709657;82;21577;-59
2021/05/21 06:16:45;;;;;;;7.62;3.90;;;;;;;;;;1708301;82;21053;-59
2021/05/21 06:19:11;;;;;;;4.67;3.30;;;;;;;;;;1708814;82;20964;-60
2021/05/21 06:21:37;;;;;;;5.42;3.83;;;;;;;;;;1709637;82;21031;-58
2021/05/21 06:24:03;;;;;;;8.25;3.87;;;;;;;;;;1702039;82;21063;-57
2021/05/21 06:26:34;;;;;;;4.00;3.22;;;;;;;;;;1682608;82;21008;-59
2021/05/21 06:28:58;;;;;;;7.00;3.35;;;;;;;;;;1668766;82;21013;-61
2021/05/21 06:31:25;;;;;;;6.33;3.58;;;;;;;;;;1668153;82;21624;-63
2021/05/21 06:33:51;;;;;;;5.95;2.90;;;;;;;;;;1668318;82;20996;-59
2021/05/21 06:36:18;;;;;;;6.08;2.87;;;;;;;;;;1667989;82;21460;-59
2021/05/21 06:38:44;;;;;;;5.20;3.05;;;;;;;;;;1668066;82;20995;-61
2021/05/21 06:41:10;;;;;;;4.53;3.17;;;;;;;;;;1668190;82;21632;-59
2021/05/21 06:43:37;;;;;;;8.65;3.47;;;;;;;;;;1667965;82;20952;-59
2021/05/21 06:46:04;;;;;;;4.70;3.30;;;;;;;;;;1668120;82;21608;-60
2021/05/21 06:48:34;;;;;;;6.17;2.50;;;;;;;;;;1668084;82;21180;-61
2021/05/21 06:51:03;;;;;;;6.03;2.33;;;;;;;;;;1668123;82;21656;-59
2021/05/21 06:53:29;;;;;;;6.03;1.95;;;;;;;;;;1671624;82;21490;-58
2021/05/21 06:55:56;;;;;;;3.15;1.30;;;;;;;;;;1680154;82;20992;-61
2021/05/21 06:58:24;;;;;;;2.62;1.45;;;;;;;;;;1672365;82;21447;-61
2021/05/21 07:00:50;;;;;;;4.03;2.37;;;;;;;;;;1668144;82;21101;-60
2021/05/21 07:03:17;;;;;;;3.55;1.65;;;;;;;;;;1684329;82;21032;-60
2021/05/21 07:05:43;;;;;;;3.80;1.35;;;;;;;;;;1686508;82;21007;-58
2021/05/21 07:08:10;;;;;;;2.25;1.40;;;;;;;;;;1668011;82;21536;-60
2021/05/21 07:10:38;;;;;;;1.60;1.10;;;;;;;;;;1667982;82;21604;-60
2021/05/21 07:13:13;;;;;;;2.27;1.10;;;;;;;;;;1693286;82;21099;-58
2021/05/21 07:15:39;;;;;;;3.30;1.40;;;;;;;;;;1676920;83;21039;-57
2021/05/21 07:18:05;;;;;;;3.52;1.07;;;;;;;;;;1674433;82;21024;-56
2021/05/21 07:20:32;;;;;;;4.83;1.07;;;;;;;;;;1695374;83;21067;-57
2021/05/21 07:22:58;;;;;;;6.62;1.20;;;;;;;;;;1696117;82;20944;-56
2021/05/21 07:25:25;;;;;;;1.22;0.80;;;;;;;;;;1696122;82;21446;-56
2021/05/21 07:27:51;;;;;;;3.22;0.90;;;;;;;;;;1709148;82;20987;-56
2021/05/21 07:30:18;;;;;;;1.42;0.95;;;;;;;;;;1709375;84;21051;-57
2021/05/21 07:32:44;;;;;;;2.02;0.80;;;;;;;;;;1708127;82;20999;-60
2021/05/21 07:35:10;;;;;;;4.75;0.82;;;;;;;;;;1707895;82;21027;-57
2021/05/21 07:37:37;;;;;;;3.87;2.83;;;;;;;;;;1709051;83;21090;-60
2021/05/21 07:40:04;;;;;;;2.42;1.07;;;;;;;;;;1684039;82;21070;-57
2021/05/21 07:42:30;;;;;;;2.60;0.90;;;;;;;;;;1680951;82;21063;-57
2021/05/21 07:44:57;;;;;;;3.37;1.15;;;;;;;;;;1681029;82;20991;-58
2021/05/21 07:47:23;;;;;;;1.32;0.98;;;;;;;;;;1694674;82;21039;-56
2021/05/21 07:49:50;;;;;;;3.87;1.22;;;;;;;;;;1680776;82;21104;-59
2021/05/21 07:52:16;;;;;;;2.05;1.00;;;;;;;;;;1680986;82;21588;-56
2021/05/21 07:54:42;;;;;;;2.12;0.80;;;;;;;;;;1680941;82;21102;-57
2021/05/21 07:57:10;;;;;;;1.92;1.00;;;;;;;;;;1681029;82;20915;-67
2021/05/21 07:59:36;;;;;;;5.87;1.10;;;;;;;;;;1680730;82;21011;-68
2021/05/21 08:02:03;;;;;;;1.00;0.98;;;;;;;;;;1680818;82;39089;-66
2021/05/21 08:04:29;;;;;;;3.50;1.00;;;;;;;;;;1696653;82;20903;-67
2021/05/21 08:06:56;;;;;;;1.20;1.10;;;;;;;;;;1687664;82;21027;-62
2021/05/21 08:09:22;;;;;;;2.90;1.07;;;;;;;;;;1680839;82;20967;-68
2021/05/21 08:11:50;;;;;;;3.62;0.93;;;;;;;;;;1694111;82;21600;-64
2021/05/21 08:14:18;;;;;;;2.15;1.10;;;;;;;;;;1709314;82;21008;-63
2021/05/21 08:16:45;;;;;;;1.12;0.80;;;;;;;;;;1709532;82;21003;-66
2021/05/21 08:19:11;;;;;;;1.67;1.07;;;;;;;;;;1709389;82;21003;-62
2021/05/21 08:21:39;;;;;;;2.17;1.07;;;;;;;;;;1709459;82;21525;-66
2021/05/21 08:24:06;;;;;;;1.77;1.32;;;;;;;;;;1709516;82;20991;-64
2021/05/21 08:26:32;;;;;;;1.52;0.98;;;;;;;;;;1705152;82;21474;-63
2021/05/21 08:28:59;;;;;;;3.50;1.07;;;;;;;;;;1686462;82;20967;-61
2021/05/21 08:31:25;;;;;;;4.83;1.40;;;;;;;;;;1690472;83;21478;-62
2021/05/21 08:33:51;;;;;;;8.73;1.35;;;;;;;;;;1695317;83;20937;-60
2021/05/21 08:36:19;;;;;;;1.15;0.82;;;;;;;;;;1675629;83;21057;-64
2021/05/21 08:38:45;;;;;;;3.40;0.90;;;;;;;;;;1695030;83;21733;-63
2021/05/21 08:41:23;;;;;;;4.90;1.40;;;;;;;;;;1695361;83;20924;-63
2021/05/21 08:43:50;;;;;;;2.05;0.88;;;;;;;;;;1692271;83;20956;-62
2021/05/21 08:46:18;;;;;;;0.98;0.85;;;;;;;;;;1692547;83;21050;-63
2021/05/21 08:48:45;;;;;;;0.98;0.88;;;;;;;;;;1690451;83;20945;-63
2021/05/21 08:51:12;;;;;;;4.05;1.30;;;;;;;;;;1680136;82;21190;-62
2021/05/21 08:53:39;;;;;;;1.62;1.50;;;;;;;;;;1687811;82;21711;-62
2021/05/21 08:56:06;;;;;;;2.98;1.05;;;;;;;;;;1682144;82;21028;-63
2021/05/21 08:58:33;;;;;;;4.17;0.98;;;;;;;;;;1667929;82;20960;-62
2021/05/21 09:00:59;;;;;;;2.95;1.20;;;;;;;;;;1667910;82;21573;-62
2021/05/21 09:03:26;;;;;;;2.72;0.82;;;;;;;;;;1668124;82;21059;-63
2021/05/21 09:06:14;;;;;;;4.12;1.17;;;;;;;;;;1673593;82;21019;-61
2021/05/21 09:08:44;;;;;;;2.25;0.88;;;;;;;;;;1667963;83;20932;-69
2021/05/21 09:11:37;;;;;;;3.90;1.10;;;;;;;;;;1667962;83;20957;-70
2021/05/21 09:14:06;;;;;;;2.02;0.75;;;;;;;;;;1667925;83;21007;-64
2021/05/21 09:16:35;;;;;;;1.20;0.70;;;;;;;;;;1667931;82;21747;-66
2021/05/21 09:19:03;;;;;;;4.03;0.95;;;;;;;;;;1667869;82;22021;-68
2021/05/21 09:21:50;;;;;;;2.00;0.90;;;;;;;;;;1667934;82;21653;-66
2021/05/21 09:24:19;;;;;;;1.25;0.70;;;;;;;;;;1668018;82;21573;-68
2021/05/21 09:26:47;;;;;;;2.08;0.88;;;;;;;;;;1673367;83;21518;-66
2021/05/21 09:29:15;;;;;;;1.67;0.70;;;;;;;;;;1668063;82;21996;-67
2021/05/21 09:31:42;;;;;;;1.15;0.60;;;;;;;;;;1669705;82;21000;-68
2021/05/21 09:34:09;;;;;;;0.80;0.60;;;;;;;;;;1671825;82;21015;-66
2021/05/21 09:36:36;;;;;;;0.62;0.60;;;;;;;;;;1671225;82;21043;-65
2021/05/21 09:39:07;;;;;;;0.98;0.60;;;;;;;;;;1671147;82;21103;-69
2021/05/21 09:41:48;;;;;;;0.82;0.82;;;;;;;;;;1670856;82;21153;-63
2021/05/21 09:44:14;;;;;;;3.30;1.10;;;;;;;;;;1668103;83;21007;-66
2021/05/21 09:46:42;;;;;;;1.87;1.10;;;;;;;;;;1682308;83;20976;-65
2021/05/21 09:49:28;;;;;;;4.10;3.70;;;;;;;;;;1672281;83;21086;-66
2021/05/21 09:51:58;;;;;;;3.08;1.60;;;;;;;;;;1669383;83;21036;-66
2021/05/21 09:54:26;;;;;;;1.05;0.90;;;;;;;;;;1681188;83;21027;-66
2021/05/21 09:57:05;;;;;;;1.42;0.90;;;;;;;;;;1683312;83;21549;-67
2021/05/21 09:59:44;;;;;;;2.08;1.25;;;;;;;;;;1673149;84;21007;-67
2021/05/21 10:02:28;;;;;;;0.68;0.68;;;;;;;;;;1683946;83;21047;-65
2021/05/21 10:04:54;;;;;;;4.10;0.98;;;;;;;;;;1685377;83;21024;-64
2021/05/21 10:07:22;;;;;;;0.80;0.62;;;;;;;;;;1677008;83;21577;-68
2021/05/21 10:09:48;;;;;;;0.85;0.80;;;;;;;;;;1669990;83;21012;-64
2021/05/21 10:12:14;;;;;;;2.33;0.72;;;;;;;;;;1679696;83;20988;-68
2021/05/21 10:14:48;;;;;;;2.10;0.82;;;;;;;;;;1683483;83;20975;-64
2021/05/21 10:17:13;;;;;;;1.65;0.90;;;;;;;;;;1680274;83;21573;-62
2021/05/21 10:19:38;;;;;;;1.75;0.82;;;;;;;;;;1680393;83;21071;-60
2021/05/21 10:22:09;;;;;;;2.05;1.20;;;;;;;;;;1667366;83;21043;-63
2021/05/21 10:24:34;;;;;;;1.12;0.80;;;;;;;;;;1668286;82;21538;-63
2021/05/21 10:27:02;;;;;;;2.60;0.75;;;;;;;;;;1671889;82;21066;-63
2021/05/21 10:29:31;;;;;;;1.30;1.20;;;;;;;;;;1708077;82;21402;-63
2021/05/21 10:32:15;;;;;;;1.42;0.80;;;;;;;;;;1681290;82;21116;-64
2021/05/21 10:34:43;;;;;;;3.37;1.30;;;;;;;;;;1686434;82;20940;-62
2021/05/21 10:37:36;;;;;;;1.10;1.00;;;;;;;;;;1681155;82;20999;-63
2021/05/21 10:40:29;;;;;;;2.05;0.80;;;;;;;;;;1681209;82;21611;-64
2021/05/21 10:43:18;;;;;;;1.85;1.00;;;;;;;;;;1681082;82;21015;-63
2021/05/21 10:45:53;;;;;;;0.70;0.47;;;;;;;;;;1673294;82;21702;-65
2021/05/21 10:48:27;;;;;;;1.55;1.45;;;;;;;;;;1680968;82;21285;-63
2021/05/21 10:51:07;;;;;;;3.08;1.00;;;;;;;;;;1681186;82;20987;-64
2021/05/21 10:53:33;;;;;;;1.62;0.90;;;;;;;;;;1680993;82;21090;-64
2021/05/21 10:56:02;;;;;;;2.25;0.85;;;;;;;;;;1673370;82;21558;-64
2021/05/21 10:58:31;;;;;;;0.70;0.70;;;;;;;;;;1681173;82;21101;-63
2021/05/21 11:01:09;;;;;;;1.67;0.62;;;;;;;;;;1680971;82;20995;-64
2021/05/21 11:03:58;;;;;;;1.07;0.70;;;;;;;;;;1683324;82;20987;-64
2021/05/21 11:06:28;;;;;;;2.50;0.90;;;;;;;;;;1677276;82;21031;-64
2021/05/21 11:09:08;;;;;;;0.60;0.60;;;;;;;;;;1681050;82;20956;-62
2021/05/21 11:11:54;;;;;;;2.10;1.00;;;;;;;;;;1709614;82;21141;-63
2021/05/21 11:14:29;;;;;;;1.65;0.75;;;;;;;;;;1706795;82;21027;-63
2021/05/21 11:17:11;;;;;;;0.78;0.78;;;;;;;;;;1694294;82;21003;-63
2021/05/21 11:19:39;;;;;;;0.80;0.80;;;;;;;;;;1709681;82;20975;-63
2021/05/21 11:22:14;;;;;;;1.62;0.72;;;;;;;;;;1709067;82;21083;-64
2021/05/21 11:24:41;;;;;;;1.03;0.70;;;;;;;;;;1709942;82;21596;-63
2021/05/21 11:27:08;;;;;;;1.10;0.95;;;;;;;;;;1709509;82;21002;-63
2021/05/21 11:29:35;;;;;;;4.22;1.20;;;;;;;;;;1709616;82;20964;-63
2021/05/21 11:32:01;;;;;;;1.80;0.85;;;;;;;;;;1709625;82;20935;-64
2021/05/21 11:34:28;;;;;;;1.77;1.00;;;;;;;;;;1709628;82;21620;-64
2021/05/21 11:36:56;;;;;;;1.40;1.27;;;;;;;;;;1708789;82;21098;-64
2021/05/21 11:39:26;;;;;;;6.22;2.87;;;;;;;;;;1708424;82;20995;-63
2021/05/21 11:41:54;;;;;;;2.60;1.60;;;;;;;;;;1676528;84;20959;-64
2021/05/21 11:44:25;;;;;;;2.02;1.10;;;;;;;;;;1696719;82;20968;-65
2021/05/21 11:46:56;;;;;;;1.60;0.80;;;;;;;;;;1709705;82;21410;-62
2021/05/21 11:49:23;;;;;;;1.37;1.27;;;;;;;;;;1709613;82;21812;-64
2021/05/21 11:51:58;;;;;;;0.98;0.82;;;;;;;;;;1709391;82;21012;-64
2021/05/21 11:54:24;;;;;;;1.75;1.00;;;;;;;;;;1709695;82;20956;-64
2021/05/21 11:56:50;;;;;;;1.50;0.78;;;;;;;;;;1709707;82;20999;-64
2021/05/21 11:59:18;;;;;;;0.85;0.70;;;;;;;;;;1709582;82;21035;-64
2021/05/21 12:01:47;;;;;;;1.42;0.80;;;;;;;;;;1709507;82;21079;-63
2021/05/21 12:04:14;;;;;;;1.77;0.80;;;;;;;;;;1709430;82;20988;-63
2021/05/21 12:06:47;;;;;;;2.00;0.90;;;;;;;;;;1709434;82;21000;-64
2021/05/21 12:09:13;;;;;;;2.77;0.80;;;;;;;;;;1686452;82;21034;-63
2021/05/21 12:11:42;;;;;;;1.05;0.78;;;;;;;;;;1692623;82;21095;-64
2021/05/21 12:14:15;;;;;;;1.65;0.72;;;;;;;;;;1709519;82;21169;-64
2021/05/21 12:16:43;;;;;;;1.30;0.93;;;;;;;;;;1709625;82;20991;-63
2021/05/21 12:19:11;;;;;;;4.00;1.15;;;;;;;;;;1689878;82;21134;-64
2021/05/21 12:21:42;;;;;;;1.62;1.37;;;;;;;;;;1689491;82;21009;-63
2021/05/21 12:24:11;;;;;;;1.05;0.90;;;;;;;;;;1709606;82;20947;-63
2021/05/21 12:26:39;;;;;;;1.67;0.75;;;;;;;;;;1709604;82;21058;-63
2021/05/21 12:29:10;;;;;;;2.08;1.00;;;;;;;;;;1709215;82;20940;-63
2021/05/21 12:31:41;;;;;;;2.30;0.75;;;;;;;;;;1709648;82;20971;-64
2021/05/21 12:34:07;;;;;;;1.87;0.80;;;;;;;;;;1709650;82;21612;-64
2021/05/21 12:36:33;;;;;;;1.70;1.30;;;;;;;;;;1709496;82;21694;-62
2021/05/21 12:39:02;;;;;;;2.20;1.37;;;;;;;;;;1709694;82;21021;-64
2021/05/21 12:41:30;;;;;;;1.95;0.85;;;;;;;;;;1709500;82;20944;-63
2021/05/21 12:44:15;;;;;;;0.90;0.90;;;;;;;;;;1709695;82;21089;-63
2021/05/21 12:46:55;;;;;;;1.35;0.82;;;;;;;;;;1709645;82;21569;-63
2021/05/21 12:49:27;;;;;;;2.08;0.98;;;;;;;;;;1709582;82;20943;-64
2021/05/21 12:52:02;;;;;;;1.85;0.88;;;;;;;;;;1709473;82;21100;-63
2021/05/21 12:54:35;;;;;;;0.78;0.78;;;;;;;;;;1709583;82;21028;-63
2021/05/21 12:57:08;;;;;;;1.12;0.95;;;;;;;;;;1709622;82;21011;-63
2021/05/21 12:59:39;;;;;;;3.08;1.10;;;;;;;;;;1709615;82;20964;-65
2021/05/21 13:02:11;;;;;;;2.67;1.05;;;;;;;;;;1709492;82;21035;-63
2021/05/21 13:04:37;;;;;;;2.08;0.85;;;;;;;;;;1709848;82;21056;-63
2021/05/21 13:07:05;;;;;;;3.30;1.40;;;;;;;;;;1709700;82;20999;-64
2021/05/21 13:09:33;;;;;;;0.90;0.90;;;;;;;;;;1703653;82;20951;-63
2021/05/21 13:12:01;;;;;;;0.68;0.68;;;;;;;;;;1696341;82;21011;-63
2021/05/21 13:14:31;;;;;;;1.02;0.80;;;;;;;;;;1709631;82;21027;-62
2021/05/21 13:17:07;;;;;;;3.62;1.10;;;;;;;;;;1709385;82;21121;-63
2021/05/21 13:19:44;;;;;;;2.00;1.35;;;;;;;;;;1709635;82;20983;-63
2021/05/21 13:22:18;;;;;;;0.68;0.68;;;;;;;;;;1709768;82;20963;-63
2021/05/21 13:24:46;;;;;;;0.95;0.90;;;;;;;;;;1709725;82;20995;-63
2021/05/21 13:27:14;;;;;;;1.00;0.90;;;;;;;;;;1709858;82;20943;-63
2021/05/21 13:29:40;;;;;;;1.00;0.90;;;;;;;;;;1697729;82;21026;-63
2021/05/21 13:32:07;;;;;;;4.33;1.00;;;;;;;;;;1696399;82;21028;-63
2021/05/21 13:34:33;;;;;;;1.17;1.07;;;;;;;;;;1676761;82;21032;-63
2021/05/21 13:37:00;;;;;;;0.60;0.60;;;;;;;;;;1696339;82;21012;-63
2021/05/21 13:39:28;;;;;;;1.70;0.80;;;;;;;;;;1696407;82;21557;-61
2021/05/21 13:41:54;;;;;;;0.75;0.72;;;;;;;;;;1696469;82;21106;-63
2021/05/21 13:44:20;;;;;;;0.80;0.80;;;;;;;;;;1680989;84;21533;-64
2021/05/21 13:46:46;;;;;;;1.80;0.90;;;;;;;;;;1692268;82;20964;-64
2021/05/21 13:49:12;;;;;;;2.08;0.80;;;;;;;;;;1696685;82;20972;-64
2021/05/21 13:51:39;;;;;;;1.45;1.05;;;;;;;;;;1696534;82;20941;-64
2021/05/21 13:54:06;;;;;;;1.55;0.90;;;;;;;;;;1696494;82;21041;-63
2021/05/21 13:56:33;;;;;;;1.10;1.00;;;;;;;;;;1696374;82;21036;-64
2021/05/21 13:58:59;;;;;;;1.98;0.85;;;;;;;;;;1696367;82;20968;-63
2021/05/21 14:01:26;;;;;;;3.42;1.20;;;;;;;;;;1696373;82;21044;-62
2021/05/21 14:03:54;;;;;;;4.62;1.00;;;;;;;;;;1696326;82;21004;-63
2021/05/21 14:06:21;;;;;;;1.75;1.10;;;;;;;;;;1696480;82;21097;-63
2021/05/21 14:08:47;;;;;;;2.00;0.93;;;;;;;;;;1696451;82;21033;-62
2021/05/21 14:11:14;;;;;;;1.65;1.47;;;;;;;;;;1676540;82;21039;-63
2021/05/21 14:13:41;;;;;;;1.10;0.90;;;;;;;;;;1696464;82;20967;-64
2021/05/21 14:16:08;;;;;;;1.27;1.05;;;;;;;;;;1696450;82;20984;-64
2021/05/21 14:18:34;;;;;;;1.17;0.95;;;;;;;;;;1696445;82;21101;-63
2021/05/21 14:21:00;;;;;;;1.87;1.10;;;;;;;;;;1696180;82;20992;-63
2021/05/21 14:23:26;;;;;;;1.10;1.02;;;;;;;;;;1696317;82;21068;-63
2021/05/21 14:25:52;;;;;;;2.00;1.00;;;;;;;;;;1696302;82;20964;-63
2021/05/21 14:28:21;;;;;;;2.35;1.50;;;;;;;;;;1696130;82;21004;-63
2021/05/21 14:30:47;;;;;;;2.25;1.35;;;;;;;;;;1696401;82;21125;-64
2021/05/21 14:33:13;;;;;;;2.00;0.93;;;;;;;;;;1696136;82;20988;-64
2021/05/21 14:35:39;;;;;;;1.05;0.90;;;;;;;;;;1696261;82;21017;-63
2021/05/21 14:38:06;;;;;;;2.50;1.00;;;;;;;;;;1696176;82;21000;-64
2021/05/21 14:40:33;;;;;;;0.90;0.85;;;;;;;;;;1696310;82;21596;-63
2021/05/21 14:43:02;;;;;;;1.52;1.10;;;;;;;;;;1696254;83;21165;-64
2021/05/21 14:45:28;;;;;;;1.47;1.10;;;;;;;;;;1695261;83;21607;-63
2021/05/21 14:47:55;;;;;;;3.30;1.20;;;;;;;;;;1678989;82;21510;-63
2021/05/21 14:50:22;;;;;;;3.08;2.37;;;;;;;;;;1694134;82;20947;-64